sensor_id;sensor_type;location;lat;lon;timestamp;P1;durP1;ratioP1;P2;durP2;ratioP2
10529;SDS011;5313;48.834;9.228;2022-12-18T00:02:14;59.13;;;23.33;;
10529;SDS011;5313;48.834;9.228;2022-12-18T00:04:40;57.50;;;25.37;;
10529;SDS011;5313;48.834;9.228;2022-12-18T00:07:06;60.77;;;23.13;;
10529;SDS011;5313;48.834;9.228;2022-12-18T00:09:31;53.37;;;22.93;;
10529;SDS011;5313;48.834;9.228;2022-12-18T00:11:57;62.73;;;25.63;;
10529;SDS011;5313;48.834;9.228;2022-12-18T00:14:22;46.63;;;23.20;;
10529;SDS011;5313;48.834;9.228;2022-12-18T00:16:48;55.77;;;23.83;;
10529;SDS011;5313;48.834;9.228;2022-12-18T00:19:13;52.23;;;23.30;;
10529;SDS011;5313;48.834;9.228;2022-12-18T00:21:40;52.13;;;23.05;;
10529;SDS011;5313;48.834;9.228;2022-12-18T00:24:07;61.15;;;24.88;;
10529;SDS011;5313;48.834;9.228;2022-12-18T00:26:33;53.13;;;23.33;;
10529;SDS011;5313;48.834;9.228;2022-12-18T00:29:01;57.55;;;24.55;;
10529;SDS011;5313;48.834;9.228;2022-12-18T00:31:32;58.92;;;23.65;;
10529;SDS011;5313;48.834;9.228;2022-12-18T00:33:57;52.35;;;22.40;;
10529;SDS011;5313;48.834;9.228;2022-12-18T00:36:27;49.10;;;22.47;;
10529;SDS011;5313;48.834;9.228;2022-12-18T00:38:55;52.45;;;22.25;;
10529;SDS011;5313;48.834;9.228;2022-12-18T00:41:22;57.90;;;23.63;;
10529;SDS011;5313;48.834;9.228;2022-12-18T00:44:07;51.00;;;22.52;;
10529;SDS011;5313;48.834;9.228;2022-12-18T00:46:34;53.83;;;23.67;;
10529;SDS011;5313;48.834;9.228;2022-12-18T00:49:00;61.20;;;25.47;;
10529;SDS011;5313;48.834;9.228;2022-12-18T00:51:25;55.80;;;23.20;;
10529;SDS011;5313;48.834;9.228;2022-12-18T00:53:51;55.53;;;23.93;;
10529;SDS011;5313;48.834;9.228;2022-12-18T00:56:17;56.58;;;24.48;;
10529;SDS011;5313;48.834;9.228;2022-12-18T00:58:43;51.20;;;23.13;;
10529;SDS011;5313;48.834;9.228;2022-12-18T01:01:08;51.23;;;24.77;;
10529;SDS011;5313;48.834;9.228;2022-12-18T01:03:34;58.07;;;25.43;;
10529;SDS011;5313;48.834;9.228;2022-12-18T01:06:04;54.30;;;24.53;;
10529;SDS011;5313;48.834;9.228;2022-12-18T01:08:34;51.20;;;22.38;;
10529;SDS011;5313;48.834;9.228;2022-12-18T01:11:06;56.45;;;23.45;;
10529;SDS011;5313;48.834;9.228;2022-12-18T01:13:33;51.42;;;23.23;;
10529;SDS011;5313;48.834;9.228;2022-12-18T01:15:59;55.57;;;23.97;;
10529;SDS011;5313;48.834;9.228;2022-12-18T01:18:25;52.80;;;23.90;;
10529;SDS011;5313;48.834;9.228;2022-12-18T01:20:50;61.60;;;25.77;;
10529;SDS011;5313;48.834;9.228;2022-12-18T01:23:16;48.27;;;23.47;;
10529;SDS011;5313;48.834;9.228;2022-12-18T01:25:41;53.67;;;22.23;;
10529;SDS011;5313;48.834;9.228;2022-12-18T01:28:07;55.83;;;24.07;;
10529;SDS011;5313;48.834;9.228;2022-12-18T01:30:32;53.97;;;22.43;;
10529;SDS011;5313;48.834;9.228;2022-12-18T01:32:58;65.67;;;23.57;;
10529;SDS011;5313;48.834;9.228;2022-12-18T01:35:24;60.43;;;24.90;;
10529;SDS011;5313;48.834;9.228;2022-12-18T01:37:53;52.67;;;23.70;;
10529;SDS011;5313;48.834;9.228;2022-12-18T01:40:20;69.22;;;26.88;;
10529;SDS011;5313;48.834;9.228;2022-12-18T01:42:49;58.63;;;19.80;;
10529;SDS011;5313;48.834;9.228;2022-12-18T01:50:19;51.28;;;22.23;;
10529;SDS011;5313;48.834;9.228;2022-12-18T01:52:47;47.45;;;20.38;;
10529;SDS011;5313;48.834;9.228;2022-12-18T01:55:17;48.88;;;21.20;;
10529;SDS011;5313;48.834;9.228;2022-12-18T01:57:45;56.88;;;24.00;;
10529;SDS011;5313;48.834;9.228;2022-12-18T02:00:16;62.83;;;24.70;;
10529;SDS011;5313;48.834;9.228;2022-12-18T02:02:44;45.65;;;17.83;;
10529;SDS011;5313;48.834;9.228;2022-12-18T02:05:11;51.83;;;23.65;;
10529;SDS011;5313;48.834;9.228;2022-12-18T02:07:46;50.70;;;21.02;;
10529;SDS011;5313;48.834;9.228;2022-12-18T02:10:28;42.25;;;19.38;;
10529;SDS011;5313;48.834;9.228;2022-12-18T02:13:09;66.43;;;24.05;;
10529;SDS011;5313;48.834;9.228;2022-12-18T02:16:29;52.15;;;22.55;;
10529;SDS011;5313;48.834;9.228;2022-12-18T02:18:48;63.15;;;22.98;;
10529;SDS011;5313;48.834;9.228;2022-12-18T02:24:13;58.17;;;20.95;;
10529;SDS011;5313;48.834;9.228;2022-12-18T02:26:53;48.20;;;18.17;;
10529;SDS011;5313;48.834;9.228;2022-12-18T02:29:29;55.33;;;22.60;;
10529;SDS011;5313;48.834;9.228;2022-12-18T02:32:13;46.88;;;18.98;;
10529;SDS011;5313;48.834;9.228;2022-12-18T02:34:42;54.25;;;21.25;;
10529;SDS011;5313;48.834;9.228;2022-12-18T02:37:10;62.40;;;21.83;;
10529;SDS011;5313;48.834;9.228;2022-12-18T02:39:40;60.55;;;21.83;;
10529;SDS011;5313;48.834;9.228;2022-12-18T02:42:08;44.35;;;19.40;;
10529;SDS011;5313;48.834;9.228;2022-12-18T02:44:35;56.25;;;22.88;;
10529;SDS011;5313;48.834;9.228;2022-12-18T02:47:09;58.95;;;21.88;;
10529;SDS011;5313;48.834;9.228;2022-12-18T03:00:31;52.00;;;21.40;;
10529;SDS011;5313;48.834;9.228;2022-12-18T03:05:43;56.40;;;23.38;;
10529;SDS011;5313;48.834;9.228;2022-12-18T03:08:20;55.88;;;22.08;;
10529;SDS011;5313;48.834;9.228;2022-12-18T03:10:50;50.40;;;20.83;;
10529;SDS011;5313;48.834;9.228;2022-12-18T03:13:23;60.22;;;22.77;;
10529;SDS011;5313;48.834;9.228;2022-12-18T03:15:56;56.38;;;22.65;;
10529;SDS011;5313;48.834;9.228;2022-12-18T03:19:25;49.08;;;21.88;;
10529;SDS011;5313;48.834;9.228;2022-12-18T03:21:26;52.00;;;22.50;;
10529;SDS011;5313;48.834;9.228;2022-12-18T03:23:58;56.85;;;24.52;;
10529;SDS011;5313;48.834;9.228;2022-12-18T03:26:25;53.42;;;22.63;;
10529;SDS011;5313;48.834;9.228;2022-12-18T03:28:53;47.92;;;22.35;;
10529;SDS011;5313;48.834;9.228;2022-12-18T03:31:24;48.15;;;20.83;;
10529;SDS011;5313;48.834;9.228;2022-12-18T03:33:56;63.15;;;32.10;;
10529;SDS011;5313;48.834;9.228;2022-12-18T03:36:25;46.70;;;20.90;;
10529;SDS011;5313;48.834;9.228;2022-12-18T03:38:52;48.53;;;21.15;;
10529;SDS011;5313;48.834;9.228;2022-12-18T03:41:19;41.07;;;19.83;;
10529;SDS011;5313;48.834;9.228;2022-12-18T03:49:35;50.38;;;18.80;;
10529;SDS011;5313;48.834;9.228;2022-12-18T03:52:33;41.83;;;18.27;;
10529;SDS011;5313;48.834;9.228;2022-12-18T03:55:05;34.38;;;15.98;;
10529;SDS011;5313;48.834;9.228;2022-12-18T03:57:33;40.00;;;17.80;;
10529;SDS011;5313;48.834;9.228;2022-12-18T04:00:09;49.45;;;21.75;;
10529;SDS011;5313;48.834;9.228;2022-12-18T04:02:44;45.40;;;20.50;;
10529;SDS011;5313;48.834;9.228;2022-12-18T04:05:15;49.30;;;21.15;;
10529;SDS011;5313;48.834;9.228;2022-12-18T04:07:43;47.88;;;20.95;;
10529;SDS011;5313;48.834;9.228;2022-12-18T04:10:11;52.25;;;22.00;;
10529;SDS011;5313;48.834;9.228;2022-12-18T04:12:38;48.85;;;20.98;;
10529;SDS011;5313;48.834;9.228;2022-12-18T04:15:04;46.27;;;20.97;;
10529;SDS011;5313;48.834;9.228;2022-12-18T04:17:30;49.63;;;21.75;;
10529;SDS011;5313;48.834;9.228;2022-12-18T04:19:56;54.13;;;21.23;;
10529;SDS011;5313;48.834;9.228;2022-12-18T04:22:22;45.63;;;20.00;;
10529;SDS011;5313;48.834;9.228;2022-12-18T04:24:47;50.83;;;21.03;;
10529;SDS011;5313;48.834;9.228;2022-12-18T04:27:13;46.80;;;22.20;;
10529;SDS011;5313;48.834;9.228;2022-12-18T04:29:38;45.60;;;20.00;;
10529;SDS011;5313;48.834;9.228;2022-12-18T04:32:04;53.70;;;22.27;;
10529;SDS011;5313;48.834;9.228;2022-12-18T04:34:30;47.03;;;20.17;;
10529;SDS011;5313;48.834;9.228;2022-12-18T04:36:55;48.97;;;20.73;;
10529;SDS011;5313;48.834;9.228;2022-12-18T04:39:21;41.47;;;18.33;;
10529;SDS011;5313;48.834;9.228;2022-12-18T04:41:46;39.20;;;16.80;;
10529;SDS011;5313;48.834;9.228;2022-12-18T04:44:12;39.10;;;17.60;;
10529;SDS011;5313;48.834;9.228;2022-12-18T04:46:37;49.70;;;19.83;;
10529;SDS011;5313;48.834;9.228;2022-12-18T04:49:03;47.30;;;19.03;;
10529;SDS011;5313;48.834;9.228;2022-12-18T04:51:28;45.97;;;19.60;;
10529;SDS011;5313;48.834;9.228;2022-12-18T04:53:54;45.17;;;20.53;;
10529;SDS011;5313;48.834;9.228;2022-12-18T04:56:19;47.43;;;20.07;;
10529;SDS011;5313;48.834;9.228;2022-12-18T04:58:45;44.47;;;20.00;;
10529;SDS011;5313;48.834;9.228;2022-12-18T05:01:11;47.23;;;21.07;;
10529;SDS011;5313;48.834;9.228;2022-12-18T05:03:39;47.95;;;19.75;;
10529;SDS011;5313;48.834;9.228;2022-12-18T05:06:04;53.30;;;21.00;;
10529;SDS011;5313;48.834;9.228;2022-12-18T05:08:31;39.30;;;18.17;;
10529;SDS011;5313;48.834;9.228;2022-12-18T05:11:00;53.78;;;21.02;;
10529;SDS011;5313;48.834;9.228;2022-12-18T05:13:27;45.47;;;18.83;;
10529;SDS011;5313;48.834;9.228;2022-12-18T05:15:53;47.13;;;20.08;;
10529;SDS011;5313;48.834;9.228;2022-12-18T05:18:20;43.47;;;19.58;;
10529;SDS011;5313;48.834;9.228;2022-12-18T05:20:45;42.53;;;17.23;;
10529;SDS011;5313;48.834;9.228;2022-12-18T05:23:11;44.33;;;18.93;;
10529;SDS011;5313;48.834;9.228;2022-12-18T05:25:36;41.97;;;18.80;;
10529;SDS011;5313;48.834;9.228;2022-12-18T05:28:02;40.50;;;17.37;;
10529;SDS011;5313;48.834;9.228;2022-12-18T05:30:28;44.17;;;19.80;;
10529;SDS011;5313;48.834;9.228;2022-12-18T05:32:53;40.30;;;18.83;;
10529;SDS011;5313;48.834;9.228;2022-12-18T05:35:19;44.27;;;18.50;;
10529;SDS011;5313;48.834;9.228;2022-12-18T05:37:44;45.13;;;17.87;;
10529;SDS011;5313;48.834;9.228;2022-12-18T05:40:10;39.53;;;16.63;;
10529;SDS011;5313;48.834;9.228;2022-12-18T05:42:36;41.13;;;17.23;;
10529;SDS011;5313;48.834;9.228;2022-12-18T05:45:02;37.47;;;15.50;;
10529;SDS011;5313;48.834;9.228;2022-12-18T05:47:28;42.58;;;19.23;;
10529;SDS011;5313;48.834;9.228;2022-12-18T05:49:54;33.23;;;13.97;;
10529;SDS011;5313;48.834;9.228;2022-12-18T05:52:20;42.83;;;17.47;;
10529;SDS011;5313;48.834;9.228;2022-12-18T05:54:45;38.73;;;16.03;;
10529;SDS011;5313;48.834;9.228;2022-12-18T05:57:11;44.37;;;17.03;;
10529;SDS011;5313;48.834;9.228;2022-12-18T05:59:36;44.30;;;15.40;;
10529;SDS011;5313;48.834;9.228;2022-12-18T06:02:02;40.63;;;15.63;;
10529;SDS011;5313;48.834;9.228;2022-12-18T06:04:31;38.00;;;15.40;;
10529;SDS011;5313;48.834;9.228;2022-12-18T06:06:56;33.75;;;15.73;;
10529;SDS011;5313;48.834;9.228;2022-12-18T06:09:22;40.17;;;14.23;;
10529;SDS011;5313;48.834;9.228;2022-12-18T06:11:48;28.93;;;12.43;;
10529;SDS011;5313;48.834;9.228;2022-12-18T06:14:15;38.08;;;15.98;;
10529;SDS011;5313;48.834;9.228;2022-12-18T06:16:42;36.95;;;17.67;;
10529;SDS011;5313;48.834;9.228;2022-12-18T06:19:07;39.67;;;15.87;;
10529;SDS011;5313;48.834;9.228;2022-12-18T06:21:38;35.63;;;15.75;;
10529;SDS011;5313;48.834;9.228;2022-12-18T06:24:04;40.40;;;16.20;;
10529;SDS011;5313;48.834;9.228;2022-12-18T06:26:30;33.90;;;16.37;;
10529;SDS011;5313;48.834;9.228;2022-12-18T06:28:55;36.47;;;14.90;;
10529;SDS011;5313;48.834;9.228;2022-12-18T06:31:21;37.27;;;17.13;;
10529;SDS011;5313;48.834;9.228;2022-12-18T06:33:46;31.87;;;14.83;;
10529;SDS011;5313;48.834;9.228;2022-12-18T06:36:12;34.60;;;14.90;;
10529;SDS011;5313;48.834;9.228;2022-12-18T06:38:39;40.50;;;15.52;;
10529;SDS011;5313;48.834;9.228;2022-12-18T06:41:07;40.92;;;15.73;;
10529;SDS011;5313;48.834;9.228;2022-12-18T06:43:38;32.65;;;14.77;;
10529;SDS011;5313;48.834;9.228;2022-12-18T06:46:03;41.00;;;14.20;;
10529;SDS011;5313;48.834;9.228;2022-12-18T06:48:30;41.50;;;17.00;;
10529;SDS011;5313;48.834;9.228;2022-12-18T06:50:56;26.58;;;11.27;;
10529;SDS011;5313;48.834;9.228;2022-12-18T06:53:22;27.17;;;13.80;;
10529;SDS011;5313;48.834;9.228;2022-12-18T06:55:47;29.80;;;15.30;;
10529;SDS011;5313;48.834;9.228;2022-12-18T06:58:13;32.67;;;12.70;;
10529;SDS011;5313;48.834;9.228;2022-12-18T07:00:39;35.93;;;14.37;;
10529;SDS011;5313;48.834;9.228;2022-12-18T07:03:04;35.57;;;14.10;;
10529;SDS011;5313;48.834;9.228;2022-12-18T07:05:30;38.27;;;15.57;;
10529;SDS011;5313;48.834;9.228;2022-12-18T07:07:55;30.17;;;13.70;;
10529;SDS011;5313;48.834;9.228;2022-12-18T07:10:21;31.77;;;15.13;;
10529;SDS011;5313;48.834;9.228;2022-12-18T07:12:46;36.87;;;16.30;;
10529;SDS011;5313;48.834;9.228;2022-12-18T07:15:12;22.60;;;10.30;;
10529;SDS011;5313;48.834;9.228;2022-12-18T07:17:38;34.97;;;13.13;;
10529;SDS011;5313;48.834;9.228;2022-12-18T07:20:03;32.77;;;15.47;;
10529;SDS011;5313;48.834;9.228;2022-12-18T07:22:29;41.27;;;16.83;;
10529;SDS011;5313;48.834;9.228;2022-12-18T07:24:55;58.10;;;23.50;;
10529;SDS011;5313;48.834;9.228;2022-12-18T07:27:20;39.80;;;19.77;;
10529;SDS011;5313;48.834;9.228;2022-12-18T07:29:49;27.20;;;12.65;;
10529;SDS011;5313;48.834;9.228;2022-12-18T07:32:15;21.88;;;11.75;;
10529;SDS011;5313;48.834;9.228;2022-12-18T07:34:40;31.73;;;14.77;;
10529;SDS011;5313;48.834;9.228;2022-12-18T07:37:06;43.10;;;15.73;;
10529;SDS011;5313;48.834;9.228;2022-12-18T07:39:31;38.47;;;13.17;;
10529;SDS011;5313;48.834;9.228;2022-12-18T07:41:57;35.93;;;15.83;;
10529;SDS011;5313;48.834;9.228;2022-12-18T07:44:41;34.20;;;16.20;;
10529;SDS011;5313;48.834;9.228;2022-12-18T07:47:07;31.80;;;16.00;;
10529;SDS011;5313;48.834;9.228;2022-12-18T07:49:32;37.43;;;15.60;;
10529;SDS011;5313;48.834;9.228;2022-12-18T07:51:58;44.73;;;16.90;;
10529;SDS011;5313;48.834;9.228;2022-12-18T07:54:24;33.70;;;15.10;;
10529;SDS011;5313;48.834;9.228;2022-12-18T07:56:50;37.13;;;15.57;;
10529;SDS011;5313;48.834;9.228;2022-12-18T07:59:16;39.00;;;18.08;;
10529;SDS011;5313;48.834;9.228;2022-12-18T08:01:42;36.58;;;13.43;;
10529;SDS011;5313;48.834;9.228;2022-12-18T08:04:08;25.20;;;11.97;;
10529;SDS011;5313;48.834;9.228;2022-12-18T08:06:33;38.87;;;17.70;;
10529;SDS011;5313;48.834;9.228;2022-12-18T08:08:59;33.87;;;17.17;;
10529;SDS011;5313;48.834;9.228;2022-12-18T08:11:25;34.57;;;13.83;;
10529;SDS011;5313;48.834;9.228;2022-12-18T08:13:52;30.50;;;14.80;;
10529;SDS011;5313;48.834;9.228;2022-12-18T08:16:18;39.78;;;18.08;;
10529;SDS011;5313;48.834;9.228;2022-12-18T08:18:44;41.30;;;15.43;;
10529;SDS011;5313;48.834;9.228;2022-12-18T08:21:13;49.67;;;15.97;;
10529;SDS011;5313;48.834;9.228;2022-12-18T08:23:41;36.03;;;16.90;;
10529;SDS011;5313;48.834;9.228;2022-12-18T08:26:06;41.53;;;16.00;;
10529;SDS011;5313;48.834;9.228;2022-12-18T08:28:33;43.40;;;16.30;;
10529;SDS011;5313;48.834;9.228;2022-12-18T08:30:58;30.88;;;14.95;;
10529;SDS011;5313;48.834;9.228;2022-12-18T08:33:25;45.50;;;20.10;;
10529;SDS011;5313;48.834;9.228;2022-12-18T08:35:51;40.45;;;17.58;;
10529;SDS011;5313;48.834;9.228;2022-12-18T08:38:17;42.73;;;18.03;;
10529;SDS011;5313;48.834;9.228;2022-12-18T08:40:42;39.77;;;18.33;;
10529;SDS011;5313;48.834;9.228;2022-12-18T08:43:09;36.00;;;16.23;;
10529;SDS011;5313;48.834;9.228;2022-12-18T08:45:53;38.92;;;17.48;;
10529;SDS011;5313;48.834;9.228;2022-12-18T08:48:19;40.17;;;18.70;;
10529;SDS011;5313;48.834;9.228;2022-12-18T08:50:53;40.83;;;16.40;;
10529;SDS011;5313;48.834;9.228;2022-12-18T08:53:23;35.75;;;15.65;;
10529;SDS011;5313;48.834;9.228;2022-12-18T08:55:49;30.37;;;13.30;;
10529;SDS011;5313;48.834;9.228;2022-12-18T08:58:14;27.03;;;11.77;;
10529;SDS011;5313;48.834;9.228;2022-12-18T09:00:40;37.83;;;17.83;;
10529;SDS011;5313;48.834;9.228;2022-12-18T09:03:10;38.27;;;17.40;;
10529;SDS011;5313;48.834;9.228;2022-12-18T09:05:39;28.65;;;15.20;;
10529;SDS011;5313;48.834;9.228;2022-12-18T09:08:05;24.77;;;13.17;;
10529;SDS011;5313;48.834;9.228;2022-12-18T09:10:31;39.83;;;18.10;;
10529;SDS011;5313;48.834;9.228;2022-12-18T09:12:57;41.10;;;18.13;;
10529;SDS011;5313;48.834;9.228;2022-12-18T09:15:22;41.63;;;18.57;;
10529;SDS011;5313;48.834;9.228;2022-12-18T09:17:48;42.00;;;17.53;;
10529;SDS011;5313;48.834;9.228;2022-12-18T09:20:14;39.00;;;18.42;;
10529;SDS011;5313;48.834;9.228;2022-12-18T09:22:43;42.30;;;19.77;;
10529;SDS011;5313;48.834;9.228;2022-12-18T09:25:09;43.97;;;18.90;;
10529;SDS011;5313;48.834;9.228;2022-12-18T09:27:35;42.90;;;19.90;;
10529;SDS011;5313;48.834;9.228;2022-12-18T09:30:01;41.57;;;19.13;;
10529;SDS011;5313;48.834;9.228;2022-12-18T09:32:28;48.60;;;19.85;;
10529;SDS011;5313;48.834;9.228;2022-12-18T09:34:53;45.83;;;20.40;;
10529;SDS011;5313;48.834;9.228;2022-12-18T09:37:19;47.83;;;21.13;;
10529;SDS011;5313;48.834;9.228;2022-12-18T09:39:44;44.93;;;21.63;;
10529;SDS011;5313;48.834;9.228;2022-12-18T09:42:12;44.97;;;21.50;;
10529;SDS011;5313;48.834;9.228;2022-12-18T09:44:45;46.05;;;20.77;;
10529;SDS011;5313;48.834;9.228;2022-12-18T09:47:28;45.80;;;20.83;;
10529;SDS011;5313;48.834;9.228;2022-12-18T09:50:01;44.50;;;21.98;;
10529;SDS011;5313;48.834;9.228;2022-12-18T09:52:32;46.88;;;21.10;;
10529;SDS011;5313;48.834;9.228;2022-12-18T09:55:05;43.90;;;20.92;;
10529;SDS011;5313;48.834;9.228;2022-12-18T09:57:39;44.33;;;20.73;;
10529;SDS011;5313;48.834;9.228;2022-12-18T10:00:20;45.30;;;20.90;;
10529;SDS011;5313;48.834;9.228;2022-12-18T10:02:46;45.50;;;22.25;;
10529;SDS011;5313;48.834;9.228;2022-12-18T10:05:15;46.65;;;21.45;;
10529;SDS011;5313;48.834;9.228;2022-12-18T10:10:38;43.92;;;21.58;;
10529;SDS011;5313;48.834;9.228;2022-12-18T10:13:14;44.13;;;22.42;;
10529;SDS011;5313;48.834;9.228;2022-12-18T10:18:21;48.35;;;23.38;;
10529;SDS011;5313;48.834;9.228;2022-12-18T10:21:00;42.15;;;20.60;;
10529;SDS011;5313;48.834;9.228;2022-12-18T10:26:25;45.78;;;21.10;;
10529;SDS011;5313;48.834;9.228;2022-12-18T10:28:51;45.60;;;21.63;;
10529;SDS011;5313;48.834;9.228;2022-12-18T10:31:19;37.45;;;19.65;;
10529;SDS011;5313;48.834;9.228;2022-12-18T10:33:47;42.92;;;20.98;;
10529;SDS011;5313;48.834;9.228;2022-12-18T10:36:12;43.60;;;20.10;;
10529;SDS011;5313;48.834;9.228;2022-12-18T10:38:38;40.20;;;20.47;;
10529;SDS011;5313;48.834;9.228;2022-12-18T10:43:52;39.60;;;20.45;;
10529;SDS011;5313;48.834;9.228;2022-12-18T10:46:35;44.17;;;21.05;;
10529;SDS011;5313;48.834;9.228;2022-12-18T10:49:01;41.93;;;20.77;;
10529;SDS011;5313;48.834;9.228;2022-12-18T10:53:55;43.53;;;19.95;;
10529;SDS011;5313;48.834;9.228;2022-12-18T10:56:24;43.00;;;19.70;;
10529;SDS011;5313;48.834;9.228;2022-12-18T10:58:59;40.42;;;18.42;;
10529;SDS011;5313;48.834;9.228;2022-12-18T11:01:28;38.33;;;18.90;;
10529;SDS011;5313;48.834;9.228;2022-12-18T11:04:22;32.53;;;16.50;;
10529;SDS011;5313;48.834;9.228;2022-12-18T11:06:54;37.63;;;18.33;;
10529;SDS011;5313;48.834;9.228;2022-12-18T11:09:31;39.70;;;17.77;;
10529;SDS011;5313;48.834;9.228;2022-12-18T11:11:59;34.95;;;17.75;;
10529;SDS011;5313;48.834;9.228;2022-12-18T11:14:35;36.45;;;17.30;;
10529;SDS011;5313;48.834;9.228;2022-12-18T11:19:58;34.40;;;17.97;;
10529;SDS011;5313;48.834;9.228;2022-12-18T11:24:58;35.45;;;18.17;;
10529;SDS011;5313;48.834;9.228;2022-12-18T11:27:26;38.10;;;18.73;;
10529;SDS011;5313;48.834;9.228;2022-12-18T11:30:06;34.83;;;18.37;;
10529;SDS011;5313;48.834;9.228;2022-12-18T11:32:44;37.13;;;16.90;;
10529;SDS011;5313;48.834;9.228;2022-12-18T11:35:21;36.57;;;17.60;;
10529;SDS011;5313;48.834;9.228;2022-12-18T11:38:02;39.93;;;20.13;;
10529;SDS011;5313;48.834;9.228;2022-12-18T11:40:42;36.80;;;18.57;;
10529;SDS011;5313;48.834;9.228;2022-12-18T11:43:13;40.67;;;19.40;;
10529;SDS011;5313;48.834;9.228;2022-12-18T11:46:17;37.43;;;18.20;;
10529;SDS011;5313;48.834;9.228;2022-12-18T11:48:49;35.77;;;18.80;;
10529;SDS011;5313;48.834;9.228;2022-12-18T11:51:34;36.53;;;17.67;;
10529;SDS011;5313;48.834;9.228;2022-12-18T11:54:14;36.20;;;18.37;;
10529;SDS011;5313;48.834;9.228;2022-12-18T11:56:58;36.17;;;19.83;;
10529;SDS011;5313;48.834;9.228;2022-12-18T12:10:44;38.23;;;18.40;;
10529;SDS011;5313;48.834;9.228;2022-12-18T12:19:02;37.50;;;19.03;;
10529;SDS011;5313;48.834;9.228;2022-12-18T12:21:34;39.97;;;20.30;;
10529;SDS011;5313;48.834;9.228;2022-12-18T12:29:35;36.97;;;19.57;;
10529;SDS011;5313;48.834;9.228;2022-12-18T12:32:32;38.60;;;18.63;;
10529;SDS011;5313;48.834;9.228;2022-12-18T12:35:24;39.73;;;19.70;;
10529;SDS011;5313;48.834;9.228;2022-12-18T12:38:10;36.63;;;18.20;;
10529;SDS011;5313;48.834;9.228;2022-12-18T12:41:04;39.57;;;18.87;;
10529;SDS011;5313;48.834;9.228;2022-12-18T12:43:53;42.40;;;20.30;;
10529;SDS011;5313;48.834;9.228;2022-12-18T12:46:22;41.53;;;19.67;;
10529;SDS011;5313;48.834;9.228;2022-12-18T12:48:56;40.53;;;21.23;;
10529;SDS011;5313;48.834;9.228;2022-12-18T12:51:34;41.50;;;19.87;;
10529;SDS011;5313;48.834;9.228;2022-12-18T12:54:06;39.73;;;20.37;;
10529;SDS011;5313;48.834;9.228;2022-12-18T12:57:00;43.30;;;21.53;;
10529;SDS011;5313;48.834;9.228;2022-12-18T13:00:01;44.73;;;21.13;;
10529;SDS011;5313;48.834;9.228;2022-12-18T13:02:30;39.43;;;19.00;;
10529;SDS011;5313;48.834;9.228;2022-12-18T13:05:25;42.77;;;19.87;;
10529;SDS011;5313;48.834;9.228;2022-12-18T13:08:01;42.80;;;18.90;;
10529;SDS011;5313;48.834;9.228;2022-12-18T13:10:33;36.97;;;19.27;;
10529;SDS011;5313;48.834;9.228;2022-12-18T13:20:34;38.90;;;19.63;;
10529;SDS011;5313;48.834;9.228;2022-12-18T13:23:45;38.13;;;18.93;;
10529;SDS011;5313;48.834;9.228;2022-12-18T13:25:55;34.37;;;19.50;;
10529;SDS011;5313;48.834;9.228;2022-12-18T13:30:58;36.70;;;18.70;;
10529;SDS011;5313;48.834;9.228;2022-12-18T13:35:55;39.40;;;18.37;;
10529;SDS011;5313;48.834;9.228;2022-12-18T13:38:34;41.60;;;19.73;;
10529;SDS011;5313;48.834;9.228;2022-12-18T13:41:02;37.30;;;19.40;;
10529;SDS011;5313;48.834;9.228;2022-12-18T13:43:43;41.33;;;17.70;;
10529;SDS011;5313;48.834;9.228;2022-12-18T13:46:17;36.27;;;17.93;;
10529;SDS011;5313;48.834;9.228;2022-12-18T13:49:49;36.83;;;17.23;;
10529;SDS011;5313;48.834;9.228;2022-12-18T13:52:01;39.37;;;18.03;;
10529;SDS011;5313;48.834;9.228;2022-12-18T13:54:34;39.40;;;19.17;;
10529;SDS011;5313;48.834;9.228;2022-12-18T13:57:03;39.10;;;19.27;;
10529;SDS011;5313;48.834;9.228;2022-12-18T13:59:33;36.63;;;18.23;;
10529;SDS011;5313;48.834;9.228;2022-12-18T14:02:05;39.83;;;18.13;;
10529;SDS011;5313;48.834;9.228;2022-12-18T14:04:37;36.40;;;17.87;;
10529;SDS011;5313;48.834;9.228;2022-12-18T14:07:15;35.43;;;18.13;;
10529;SDS011;5313;48.834;9.228;2022-12-18T14:09:56;38.87;;;19.37;;
10529;SDS011;5313;48.834;9.228;2022-12-18T14:12:25;38.43;;;18.73;;
10529;SDS011;5313;48.834;9.228;2022-12-18T14:15:20;40.37;;;18.13;;
10529;SDS011;5313;48.834;9.228;2022-12-18T14:17:57;39.60;;;19.07;;
10529;SDS011;5313;48.834;9.228;2022-12-18T14:20:26;38.47;;;19.93;;
10529;SDS011;5313;48.834;9.228;2022-12-18T14:22:54;38.43;;;19.90;;
10529;SDS011;5313;48.834;9.228;2022-12-18T14:25:23;38.50;;;18.73;;
10529;SDS011;5313;48.834;9.228;2022-12-18T14:35:35;42.53;;;19.87;;
10529;SDS011;5313;48.834;9.228;2022-12-18T14:38:22;40.53;;;18.83;;
10529;SDS011;5313;48.834;9.228;2022-12-18T14:40:57;39.07;;;19.37;;
10529;SDS011;5313;48.834;9.228;2022-12-18T14:43:25;44.20;;;24.40;;
10529;SDS011;5313;48.834;9.228;2022-12-18T14:45:52;42.53;;;21.10;;
10529;SDS011;5313;48.834;9.228;2022-12-18T14:48:19;43.90;;;20.33;;
10529;SDS011;5313;48.834;9.228;2022-12-18T14:50:53;40.37;;;19.50;;
10529;SDS011;5313;48.834;9.228;2022-12-18T14:53:23;41.03;;;19.53;;
10529;SDS011;5313;48.834;9.228;2022-12-18T14:55:58;40.50;;;19.80;;
10529;SDS011;5313;48.834;9.228;2022-12-18T14:58:23;45.70;;;21.73;;
10529;SDS011;5313;48.834;9.228;2022-12-18T15:00:49;47.17;;;22.00;;
10529;SDS011;5313;48.834;9.228;2022-12-18T15:03:17;44.90;;;21.07;;
10529;SDS011;5313;48.834;9.228;2022-12-18T15:05:45;43.83;;;20.13;;
10529;SDS011;5313;48.834;9.228;2022-12-18T15:08:26;46.73;;;21.67;;
10529;SDS011;5313;48.834;9.228;2022-12-18T15:10:59;41.07;;;20.17;;
10529;SDS011;5313;48.834;9.228;2022-12-18T15:13:25;44.93;;;20.97;;
10529;SDS011;5313;48.834;9.228;2022-12-18T15:15:51;44.87;;;22.63;;
10529;SDS011;5313;48.834;9.228;2022-12-18T15:18:20;45.03;;;21.97;;
10529;SDS011;5313;48.834;9.228;2022-12-18T15:20:51;42.17;;;21.67;;
10529;SDS011;5313;48.834;9.228;2022-12-18T15:23:36;48.10;;;22.90;;
10529;SDS011;5313;48.834;9.228;2022-12-18T15:26:16;45.00;;;21.77;;
10529;SDS011;5313;48.834;9.228;2022-12-18T15:28:44;46.88;;;22.13;;
10529;SDS011;5313;48.834;9.228;2022-12-18T15:33:38;47.07;;;23.07;;
10529;SDS011;5313;48.834;9.228;2022-12-18T15:36:10;50.30;;;23.43;;
10529;SDS011;5313;48.834;9.228;2022-12-18T15:38:38;49.73;;;23.70;;
10529;SDS011;5313;48.834;9.228;2022-12-18T15:41:04;50.47;;;23.60;;
10529;SDS011;5313;48.834;9.228;2022-12-18T15:43:30;51.50;;;26.43;;
10529;SDS011;5313;48.834;9.228;2022-12-18T15:45:59;56.28;;;26.60;;
10529;SDS011;5313;48.834;9.228;2022-12-18T15:48:29;52.17;;;24.60;;
10529;SDS011;5313;48.834;9.228;2022-12-18T15:50:56;49.28;;;24.02;;
10529;SDS011;5313;48.834;9.228;2022-12-18T15:53:23;49.83;;;24.65;;
10529;SDS011;5313;48.834;9.228;2022-12-18T15:55:51;48.70;;;23.88;;
10529;SDS011;5313;48.834;9.228;2022-12-18T15:58:35;50.55;;;23.17;;
10529;SDS011;5313;48.834;9.228;2022-12-18T16:01:00;45.40;;;22.77;;
10529;SDS011;5313;48.834;9.228;2022-12-18T16:03:26;48.07;;;24.83;;
10529;SDS011;5313;48.834;9.228;2022-12-18T16:05:52;52.57;;;24.83;;
10529;SDS011;5313;48.834;9.228;2022-12-18T16:08:17;55.43;;;26.27;;
10529;SDS011;5313;48.834;9.228;2022-12-18T16:10:43;51.13;;;25.23;;
10529;SDS011;5313;48.834;9.228;2022-12-18T16:13:09;52.67;;;25.33;;
10529;SDS011;5313;48.834;9.228;2022-12-18T16:15:36;54.00;;;24.95;;
10529;SDS011;5313;48.834;9.228;2022-12-18T16:18:02;55.83;;;25.20;;
10529;SDS011;5313;48.834;9.228;2022-12-18T16:20:27;47.90;;;24.60;;
10529;SDS011;5313;48.834;9.228;2022-12-18T16:22:53;54.90;;;25.83;;